createdAt,value
2018-12-05T00:00:23.815Z,93.30
2018-12-05T00:03:27.835Z,93.30
2018-12-05T00:06:31.839Z,93.40
2018-12-05T00:09:35.854Z,93.50
2018-12-05T00:12:39.868Z,93.60
2018-12-05T00:15:43.874Z,93.50
2018-12-05T00:18:47.978Z,93.50
2018-12-05T00:21:51.999Z,93.50
2018-12-05T00:24:56.011Z,93.20
2018-12-05T00:28:00.037Z,93.00
2018-12-05T00:31:04.034Z,92.80
2018-12-05T00:34:08.050Z,92.70
2018-12-05T00:37:12.079Z,92.70
2018-12-05T00:40:16.178Z,92.60
2018-12-05T00:43:20.195Z,92.60
2018-12-05T00:46:24.200Z,92.50
2018-12-05T00:49:28.216Z,92.40
2018-12-05T00:52:32.235Z,92.40
2018-12-05T00:55:36.270Z,92.20
2018-12-05T00:58:40.288Z,92.10
2018-12-05T01:01:44.400Z,92.20
2018-12-05T01:04:48.404Z,92.10
2018-12-05T01:07:52.498Z,92.00
2018-12-05T01:10:56.519Z,92.10
2018-12-05T01:14:00.532Z,92.20
2018-12-05T01:17:04.630Z,92.30
2018-12-05T01:20:08.814Z,92.50
2018-12-05T01:23:12.841Z,92.60
2018-12-05T01:26:16.919Z,92.80
2018-12-05T01:29:21.098Z,92.80
2018-12-05T01:32:25.114Z,92.80
2018-12-05T01:35:29.231Z,92.70
2018-12-05T01:38:33.330Z,92.60
2018-12-05T01:41:37.423Z,92.40
2018-12-05T01:44:41.522Z,92.60
2018-12-05T01:47:45.530Z,92.50
2018-12-05T01:50:49.543Z,92.50
2018-12-05T01:53:53.567Z,92.40
2018-12-05T01:56:57.571Z,92.40
2018-12-05T02:00:01.589Z,92.20
2018-12-05T02:03:05.594Z,91.80
2018-12-05T02:06:09.614Z,91.80
2018-12-05T02:09:13.733Z,91.70
2018-12-05T02:12:17.734Z,91.50
2018-12-05T02:15:21.751Z,91.30
2018-12-05T02:18:25.764Z,91.30
2018-12-05T02:21:29.779Z,91.10
2018-12-05T02:24:33.788Z,91.20
2018-12-05T02:27:37.807Z,91.30
2018-12-05T02:30:41.880Z,91.40
2018-12-05T02:33:45.878Z,91.60
2018-12-05T02:36:49.894Z,91.40
2018-12-05T02:39:53.909Z,91.40
2018-12-05T02:42:57.933Z,91.50
2018-12-05T02:46:02.133Z,91.50
2018-12-05T02:49:06.215Z,91.60
2018-12-05T02:52:10.239Z,91.60
2018-12-05T02:55:14.246Z,91.60
2018-12-05T02:58:18.260Z,91.80
2018-12-05T03:01:22.290Z,91.70
2018-12-05T03:04:26.308Z,91.60
2018-12-05T03:07:30.355Z,91.60
2018-12-05T03:10:34.370Z,91.60
2018-12-05T03:13:38.383Z,91.60
2018-12-05T03:16:42.388Z,91.50
2018-12-05T03:19:46.409Z,91.50
2018-12-05T03:22:50.414Z,91.40
2018-12-05T03:25:54.439Z,91.20
2018-12-05T03:28:58.540Z,91.30
2018-12-05T03:32:02.544Z,91.40
2018-12-05T03:35:06.731Z,91.40
2018-12-05T03:38:10.739Z,91.50
2018-12-05T03:41:14.763Z,91.50
2018-12-05T03:44:18.770Z,91.60
2018-12-05T03:47:22.790Z,91.70
2018-12-05T03:50:27.075Z,91.80
2018-12-05T03:53:31.084Z,91.70
2018-12-05T03:56:35.107Z,91.70
2018-12-05T03:59:39.115Z,91.50
2018-12-05T04:02:44.097Z,91.50
2018-12-05T04:05:48.098Z,91.60
2018-12-05T04:08:52.082Z,91.60
2018-12-05T04:11:56.094Z,91.60
2018-12-05T04:15:00.095Z,91.70
2018-12-05T04:18:04.111Z,91.70
2018-12-05T04:21:08.118Z,91.60
2018-12-05T04:24:12.125Z,91.70
2018-12-05T04:27:16.132Z,91.70
2018-12-05T04:30:20.139Z,91.70
2018-12-05T04:33:24.159Z,91.80
2018-12-05T04:36:28.187Z,91.90
2018-12-05T04:39:32.191Z,91.90
2018-12-05T04:42:36.312Z,92.00
2018-12-05T04:45:40.334Z,92.10
2018-12-05T04:48:44.332Z,92.20
2018-12-05T04:51:48.343Z,92.40
2018-12-05T04:54:52.353Z,92.50
2018-12-05T04:57:56.822Z,92.50
2018-12-05T05:01:00.839Z,92.50
2018-12-05T05:04:04.860Z,92.40
2018-12-05T05:07:08.967Z,92.40
2018-12-05T05:10:16.343Z,92.50
2018-12-05T05:13:20.343Z,92.60
2018-12-05T05:16:24.367Z,92.70
2018-12-05T05:19:28.376Z,92.70
2018-12-05T05:22:32.387Z,93.10
2018-12-05T05:25:36.402Z,92.90
2018-12-05T05:28:40.499Z,92.80
2018-12-05T05:31:44.511Z,92.80
2018-12-05T05:34:48.517Z,92.70
2018-12-05T05:37:53.007Z,92.80
2018-12-05T05:40:57.351Z,92.90
2018-12-05T05:44:01.354Z,92.90
2018-12-05T05:47:05.534Z,93.00
2018-12-05T05:50:10.642Z,93.10
2018-12-05T05:53:14.652Z,93.30
2018-12-05T05:56:18.819Z,93.10
2018-12-05T05:59:22.863Z,93.20
2018-12-05T06:02:26.892Z,93.20
2018-12-05T06:05:31.411Z,93.20
2018-12-05T06:08:35.417Z,93.20
2018-12-05T06:11:39.443Z,93.30
2018-12-05T06:14:43.480Z,93.30
2018-12-05T06:17:47.503Z,93.30
2018-12-05T06:20:51.550Z,93.30
2018-12-05T06:23:55.562Z,93.20
2018-12-05T06:26:59.668Z,93.10
2018-12-05T06:30:04.681Z,93.00
2018-12-05T06:33:08.696Z,93.10
2018-12-05T06:36:12.707Z,93.10
2018-12-05T06:39:16.725Z,93.00
2018-12-05T06:42:21.052Z,93.00
2018-12-05T06:45:25.074Z,92.90
2018-12-05T06:48:29.435Z,93.00
2018-12-05T06:51:33.567Z,93.00
2018-12-05T06:54:37.808Z,92.90
2018-12-05T06:57:41.844Z,92.90
2018-12-05T07:00:45.958Z,92.90
2018-12-05T07:03:49.988Z,92.90
2018-12-05T07:06:54.013Z,92.80
2018-12-05T07:09:58.208Z,92.90
2018-12-05T07:13:02.244Z,93.00
2018-12-05T07:16:06.353Z,93.00
2018-12-05T07:19:10.412Z,92.90
2018-12-05T07:22:14.435Z,93.10
2018-12-05T07:25:18.462Z,92.70
2018-12-05T07:28:23.247Z,92.50
2018-12-05T07:31:27.271Z,92.40
2018-12-05T07:34:31.275Z,92.20
2018-12-05T07:37:35.295Z,92.30
2018-12-05T07:40:39.322Z,92.30
2018-12-05T07:43:43.343Z,92.30
2018-12-05T07:46:47.363Z,92.20
2018-12-05T07:49:51.526Z,92.10
2018-12-05T07:52:55.551Z,92.10
2018-12-05T07:55:59.584Z,92.00
2018-12-05T07:59:03.695Z,92.00
2018-12-05T08:02:07.730Z,91.90
2018-12-05T08:05:11.747Z,92.00
2018-12-05T08:08:15.772Z,92.00
2018-12-05T08:11:19.786Z,91.90
2018-12-05T08:14:23.844Z,91.90
2018-12-05T08:17:27.839Z,91.70
2018-12-05T08:20:32.187Z,91.70
2018-12-05T08:23:36.210Z,91.70
2018-12-05T08:26:40.227Z,91.90
2018-12-05T08:29:44.251Z,91.90
2018-12-05T08:32:48.263Z,91.70
2018-12-05T08:35:52.288Z,91.30
2018-12-05T08:38:56.364Z,91.20
2018-12-05T08:42:00.396Z,91.30
2018-12-05T08:45:04.715Z,91.40
2018-12-05T08:48:08.730Z,91.60
2018-12-05T08:51:12.839Z,92.00
2018-12-05T08:54:20.980Z,91.60
2018-12-05T08:57:22.871Z,91.60
2018-12-05T09:00:27.059Z,91.60
2018-12-05T09:03:31.076Z,91.40
2018-12-05T09:06:35.122Z,91.40
2018-12-05T09:09:39.130Z,91.60
2018-12-05T09:12:43.130Z,91.60
2018-12-05T09:15:47.162Z,91.50
2018-12-05T09:18:51.167Z,91.40
2018-12-05T09:21:55.175Z,91.30
2018-12-05T09:24:59.194Z,91.10
2018-12-05T09:28:03.197Z,91.00
2018-12-05T09:31:07.338Z,90.80
2018-12-05T09:34:11.344Z,90.80
2018-12-05T09:37:15.358Z,90.60
2018-12-05T09:40:19.378Z,90.40
2018-12-05T09:43:23.391Z,90.40
2018-12-05T09:46:27.410Z,90.40
2018-12-05T09:49:31.428Z,90.30
2018-12-05T09:52:35.602Z,90.40
2018-12-05T09:55:39.703Z,90.30
2018-12-05T09:58:43.715Z,90.50
2018-12-05T10:01:47.745Z,89.90
2018-12-05T10:04:51.753Z,89.60
2018-12-05T10:07:55.771Z,89.60
2018-12-05T10:10:59.796Z,90.10
2018-12-05T10:14:03.908Z,88.90
2018-12-05T10:17:07.928Z,89.50
2018-12-05T10:20:11.930Z,89.50
2018-12-05T10:23:15.943Z,89.40
2018-12-05T10:26:20.040Z,89.40
2018-12-05T10:29:24.064Z,89.70
2018-12-05T10:32:28.079Z,88.40
2018-12-05T10:35:32.107Z,87.50
2018-12-05T10:38:36.118Z,87.70
2018-12-05T10:41:40.127Z,87.40
2018-12-05T10:44:44.144Z,87.30
2018-12-05T10:47:48.320Z,87.00
2018-12-05T10:50:52.415Z,87.00
2018-12-05T10:53:56.519Z,87.20
2018-12-05T10:57:00.562Z,86.00
2018-12-05T11:00:08.102Z,85.30
2018-12-05T11:03:14.370Z,84.90
2018-12-05T11:06:23.743Z,84.90
2018-12-05T11:09:33.238Z,84.80
2018-12-05T11:12:44.515Z,84.20
2018-12-05T11:15:54.056Z,84.10
2018-12-05T11:19:03.486Z,84.30
2018-12-05T11:22:14.779Z,84.00
2018-12-05T11:25:20.063Z,84.00
2018-12-05T11:28:24.167Z,84.10
2018-12-05T11:31:28.185Z,84.40
2018-12-05T11:34:32.282Z,84.30
2018-12-05T11:37:36.395Z,85.40
2018-12-05T11:40:40.406Z,84.70
2018-12-05T11:43:44.418Z,84.80
2018-12-05T11:46:48.675Z,85.10
2018-12-05T11:49:52.725Z,85.10
2018-12-05T11:52:56.739Z,85.00
2018-12-05T11:56:00.754Z,85.20
2018-12-05T11:59:04.851Z,85.60
2018-12-05T12:02:08.888Z,85.60
2018-12-05T12:05:12.895Z,85.40
2018-12-05T12:08:16.895Z,85.30
2018-12-05T12:11:20.999Z,85.10
2018-12-05T12:14:25.104Z,85.40
2018-12-05T12:17:29.304Z,84.90
2018-12-05T12:20:33.323Z,85.10
2018-12-05T12:23:37.415Z,85.10
2018-12-05T12:26:41.427Z,84.90
2018-12-05T12:29:45.517Z,85.30
2018-12-05T12:32:49.509Z,85.50
2018-12-05T12:35:53.527Z,85.40
2018-12-05T12:38:57.528Z,85.50
2018-12-05T12:42:01.543Z,85.70
2018-12-05T12:45:06.946Z,85.60
2018-12-05T12:48:11.043Z,85.50
2018-12-05T12:51:15.070Z,85.80
2018-12-05T12:54:19.079Z,85.90
2018-12-05T12:57:23.087Z,85.70
2018-12-05T13:00:27.097Z,85.60
2018-12-05T13:03:31.116Z,85.60
2018-12-05T13:06:35.230Z,85.30
2018-12-05T13:09:39.248Z,85.10
2018-12-05T13:12:43.243Z,85.00
2018-12-05T13:15:47.339Z,84.60
2018-12-05T13:18:51.360Z,84.50
2018-12-05T13:21:55.376Z,84.60
2018-12-05T13:24:59.537Z,84.60
2018-12-05T13:28:03.642Z,84.50
2018-12-05T13:31:07.739Z,84.30
2018-12-05T13:34:11.840Z,84.10
2018-12-05T13:37:15.925Z,84.10
2018-12-05T13:40:19.939Z,84.10
2018-12-05T13:43:23.947Z,84.10
2018-12-05T13:46:30.125Z,83.80
2018-12-05T13:49:33.944Z,83.50
2018-12-05T13:52:38.081Z,83.40
2018-12-05T13:55:42.310Z,83.30
2018-12-05T13:58:46.327Z,83.10
2018-12-05T14:01:50.332Z,82.60
2018-12-05T14:04:54.356Z,82.20
2018-12-05T14:07:58.377Z,81.90
2018-12-05T14:11:02.387Z,81.80
2018-12-05T14:14:06.463Z,81.60
2018-12-05T14:17:10.451Z,81.30
2018-12-05T14:20:14.448Z,81.50
2018-12-05T14:23:18.470Z,81.50
2018-12-05T14:26:22.563Z,81.60
2018-12-05T14:29:26.666Z,81.20
2018-12-05T14:32:30.787Z,81.00
2018-12-05T14:35:34.800Z,81.90
2018-12-05T14:38:38.899Z,81.20
2018-12-05T14:41:42.914Z,81.10
2018-12-05T14:44:46.923Z,80.50
2018-12-05T14:47:51.019Z,80.30
2018-12-05T14:50:55.038Z,80.10
2018-12-05T14:53:59.043Z,80.00
2018-12-05T14:57:03.148Z,80.30
2018-12-05T15:00:08.180Z,80.40
2018-12-05T15:03:12.190Z,80.40
2018-12-05T15:06:16.294Z,80.70
2018-12-05T15:09:20.308Z,80.80
2018-12-05T15:12:24.322Z,80.80
2018-12-05T15:15:28.336Z,81.00
2018-12-05T15:18:32.342Z,81.30
2018-12-05T15:21:36.442Z,81.40
2018-12-05T15:24:40.447Z,81.50
2018-12-05T15:27:44.476Z,81.50
2018-12-05T15:30:48.495Z,81.50
2018-12-05T15:33:52.699Z,81.70
2018-12-05T15:36:56.727Z,82.00
2018-12-05T15:40:00.759Z,82.10
2018-12-05T15:43:04.758Z,82.30
2018-12-05T15:46:08.778Z,82.30
2018-12-05T15:49:12.787Z,82.30
2018-12-05T15:52:16.794Z,82.50
2018-12-05T15:55:20.803Z,82.80
2018-12-05T15:58:24.806Z,83.50
2018-12-05T16:01:28.834Z,83.20
2018-12-05T16:04:32.934Z,83.30
2018-12-05T16:07:36.926Z,83.30
2018-12-05T16:10:40.942Z,83.50
2018-12-05T16:13:44.946Z,83.70
2018-12-05T16:16:48.952Z,83.90
2018-12-05T16:19:52.972Z,84.10
2018-12-05T16:22:56.961Z,84.20
2018-12-05T16:26:00.987Z,84.50
2018-12-05T16:29:05.002Z,84.60
2018-12-05T16:32:09.112Z,84.70
2018-12-05T16:35:13.126Z,84.70
2018-12-05T16:38:17.150Z,84.80
2018-12-05T16:41:21.155Z,84.60
2018-12-05T16:44:25.179Z,84.70
2018-12-05T16:47:29.283Z,84.60
2018-12-05T16:50:33.304Z,84.70
2018-12-05T16:53:37.339Z,84.40
2018-12-05T16:56:41.344Z,84.30
2018-12-05T16:59:45.657Z,84.30
2018-12-05T17:02:49.727Z,84.10
2018-12-05T17:05:53.751Z,84.50
2018-12-05T17:08:57.857Z,84.80
2018-12-05T17:12:01.854Z,84.60
2018-12-05T17:15:06.065Z,84.40
2018-12-05T17:18:10.078Z,84.50
2018-12-05T17:21:14.158Z,84.70
2018-12-05T17:24:18.188Z,84.50
2018-12-05T17:27:22.198Z,84.80
2018-12-05T17:30:26.280Z,84.70
2018-12-05T17:33:30.293Z,84.70
2018-12-05T17:36:34.380Z,85.50
2018-12-05T17:39:38.424Z,84.90
2018-12-05T17:42:42.644Z,85.00
2018-12-05T17:45:46.734Z,85.20
2018-12-05T17:48:50.747Z,85.30
2018-12-05T17:51:54.855Z,85.30
2018-12-05T17:54:58.866Z,85.40
2018-12-05T17:58:02.885Z,85.50
2018-12-05T18:01:06.922Z,85.50
2018-12-05T18:04:10.951Z,85.60
2018-12-05T18:07:15.179Z,85.60
2018-12-05T18:10:19.305Z,85.70
2018-12-05T18:13:23.320Z,85.80
2018-12-05T18:16:28.177Z,85.90
2018-12-05T18:19:32.188Z,85.80
2018-12-05T18:22:36.206Z,86.00
2018-12-05T18:25:40.219Z,86.10
2018-12-05T18:28:44.221Z,86.30
2018-12-05T18:31:48.235Z,86.30
2018-12-05T18:34:52.230Z,86.30
2018-12-05T18:37:56.355Z,86.50
2018-12-05T18:41:00.379Z,87.40
2018-12-05T18:44:04.558Z,86.70
2018-12-05T18:47:08.592Z,86.80
2018-12-05T18:50:12.614Z,87.60
2018-12-05T18:53:16.626Z,86.80
2018-12-05T18:56:20.763Z,86.80
2018-12-05T18:59:24.856Z,86.80
2018-12-05T19:02:28.971Z,86.90
2018-12-05T19:05:33.004Z,86.80
2018-12-05T19:08:37.010Z,86.80
2018-12-05T19:11:41.035Z,86.70
2018-12-05T19:14:45.367Z,86.60
2018-12-05T19:17:49.402Z,86.50
2018-12-05T19:20:53.491Z,86.30
2018-12-05T19:23:57.538Z,85.90
2018-12-05T19:27:01.668Z,85.60
2018-12-05T19:30:07.302Z,85.00
2018-12-05T19:33:11.314Z,84.70
2018-12-05T19:36:15.339Z,84.20
2018-12-05T19:39:19.350Z,83.60
2018-12-05T19:42:23.362Z,83.20
2018-12-05T19:45:27.362Z,82.60
2018-12-05T19:48:31.455Z,82.50
2018-12-05T19:51:35.554Z,82.10
2018-12-05T19:54:39.564Z,81.60
2018-12-05T19:57:43.583Z,81.60
2018-12-05T20:00:47.631Z,81.30
2018-12-05T20:03:51.770Z,81.10
2018-12-05T20:06:55.873Z,81.00
2018-12-05T20:09:59.878Z,80.80
2018-12-05T20:13:04.015Z,80.90
2018-12-05T20:16:08.015Z,81.00
2018-12-05T20:19:12.119Z,80.90
2018-12-05T20:22:16.110Z,81.00
2018-12-05T20:25:20.210Z,80.80
2018-12-05T20:28:24.303Z,80.80
2018-12-05T20:31:28.307Z,80.80
2018-12-05T20:34:32.303Z,80.70
2018-12-05T20:37:36.321Z,80.70
2018-12-05T20:40:40.330Z,80.50
2018-12-05T20:43:44.346Z,80.30
2018-12-05T20:46:48.340Z,80.10
2018-12-05T20:49:52.443Z,79.90
2018-12-05T20:52:56.469Z,79.80
2018-12-05T20:56:00.470Z,79.60
2018-12-05T20:59:04.506Z,79.50
2018-12-05T21:02:08.520Z,79.60
2018-12-05T21:05:12.650Z,79.70
2018-12-05T21:08:16.660Z,79.70
2018-12-05T21:11:20.806Z,79.60
2018-12-05T21:14:25.008Z,79.50
2018-12-05T21:17:29.242Z,79.50
2018-12-05T21:20:33.271Z,79.40
2018-12-05T21:23:37.434Z,78.90
2018-12-05T21:26:41.445Z,79.80
2018-12-05T21:29:45.475Z,79.10
2018-12-05T21:32:49.494Z,79.90
2018-12-05T21:35:53.514Z,79.20
2018-12-05T21:38:57.560Z,79.00
2018-12-05T21:42:01.946Z,79.10
2018-12-05T21:45:06.167Z,79.20
2018-12-05T21:48:10.221Z,79.00
2018-12-05T21:51:14.180Z,79.10
2018-12-05T21:54:18.289Z,79.20
2018-12-05T21:57:22.267Z,79.20
2018-12-05T22:00:26.259Z,79.20
2018-12-05T22:03:30.313Z,79.20
2018-12-05T22:06:34.315Z,79.20
2018-12-05T22:09:38.751Z,79.30
2018-12-05T22:12:43.552Z,79.30
2018-12-05T22:15:48.090Z,79.50
2018-12-05T22:18:52.227Z,79.70
2018-12-05T22:21:56.364Z,79.70
2018-12-05T22:25:00.642Z,79.60
2018-12-05T22:28:04.674Z,79.60
2018-12-05T22:31:08.686Z,79.30
2018-12-05T22:34:12.699Z,79.30
2018-12-05T22:37:16.710Z,79.40
2018-12-05T22:43:58.623Z,79.60
2018-12-05T22:47:02.611Z,79.60
2018-12-05T22:50:07.871Z,79.70
2018-12-05T22:53:11.954Z,79.80
2018-12-05T22:56:15.947Z,80.00
2018-12-05T22:59:19.950Z,80.00
2018-12-05T23:02:24.047Z,80.70
2018-12-05T23:05:28.051Z,80.20
2018-12-05T23:08:32.043Z,80.00
2018-12-05T23:11:36.049Z,80.00
2018-12-05T23:14:40.063Z,80.10
2018-12-05T23:17:44.147Z,80.10
2018-12-05T23:20:48.324Z,80.00
2018-12-05T23:23:52.303Z,80.80
2018-12-05T23:26:56.302Z,80.20
2018-12-05T23:30:00.390Z,80.30
2018-12-05T23:33:04.378Z,80.30
2018-12-05T23:36:08.387Z,80.20
2018-12-05T23:39:12.376Z,80.30
2018-12-05T23:42:16.362Z,80.30
2018-12-05T23:45:20.704Z,80.30
2018-12-05T23:48:24.686Z,80.40
2018-12-05T23:51:28.750Z,80.40
2018-12-05T23:54:32.747Z,80.50
2018-12-05T23:57:36.746Z,80.30
